createdAt,value
2022-11-06T00:01:10.930Z,5.85
2022-11-06T00:03:38.233Z,5.63
2022-11-06T00:06:27.970Z,7.38
2022-11-06T00:08:55.007Z,5.00
2022-11-06T00:11:22.012Z,6.13
2022-11-06T00:13:49.463Z,4.97
2022-11-06T00:16:16.340Z,3.97
2022-11-06T00:18:43.305Z,5.78
2022-11-06T00:21:12.456Z,4.57
2022-11-06T00:26:11.164Z,5.32
2022-11-06T00:28:38.475Z,5.78
2022-11-06T00:31:10.478Z,5.72
2022-11-06T00:33:37.461Z,6.57
2022-11-06T00:36:06.166Z,4.90
2022-11-06T00:38:33.460Z,5.03
2022-11-06T00:41:05.244Z,4.57
2022-11-06T00:43:33.074Z,4.50
2022-11-06T00:46:07.471Z,5.10
2022-11-06T00:48:35.146Z,5.95
2022-11-06T00:51:23.128Z,6.68
2022-11-06T00:53:57.369Z,4.28
2022-11-06T00:56:24.822Z,5.50
2022-11-06T00:58:52.019Z,5.63
2022-11-06T01:01:20.112Z,4.80
2022-11-06T01:03:48.891Z,4.60
2022-11-06T01:06:18.441Z,4.60
2022-11-06T01:08:46.359Z,6.28
2022-11-06T01:11:16.874Z,5.88
2022-11-06T01:13:44.445Z,5.07
2022-11-06T01:16:14.230Z,4.43
2022-11-06T01:18:42.543Z,4.10
2022-11-06T01:21:15.046Z,5.50
2022-11-06T01:23:42.555Z,3.80
2022-11-06T01:26:11.037Z,4.00
2022-11-06T01:28:39.483Z,4.03
2022-11-06T01:31:09.054Z,4.27
2022-11-06T01:33:36.211Z,6.78
2022-11-06T01:36:03.276Z,5.25
2022-11-06T01:38:30.130Z,5.43
2022-11-06T01:40:56.958Z,4.18
2022-11-06T01:43:46.002Z,3.78
2022-11-06T01:46:12.967Z,4.78
2022-11-06T01:48:42.711Z,3.85
2022-11-06T01:51:09.803Z,6.75
2022-11-06T01:53:37.472Z,4.30
2022-11-06T01:56:06.107Z,4.45
2022-11-06T01:58:33.797Z,4.32
2022-11-06T02:01:00.710Z,5.43
2022-11-06T02:03:27.515Z,4.47
2022-11-06T02:05:54.431Z,6.20
2022-11-06T02:08:22.013Z,4.30
2022-11-06T02:10:49.116Z,5.18
2022-11-06T02:13:18.466Z,4.25
2022-11-06T02:15:50.379Z,4.80
2022-11-06T02:18:35.890Z,3.13
2022-11-06T02:21:12.062Z,4.93
2022-11-06T02:23:56.309Z,5.32
2022-11-06T02:26:47.722Z,4.47
2022-11-06T02:29:21.535Z,4.18
2022-11-06T02:31:51.174Z,3.92
2022-11-06T02:34:19.435Z,4.30
2022-11-06T02:36:57.311Z,3.60
2022-11-06T02:39:25.832Z,3.75
2022-11-06T02:41:54.003Z,5.90
2022-11-06T02:44:23.352Z,4.13
2022-11-06T02:46:51.974Z,4.55
2022-11-06T02:49:29.118Z,4.85
2022-11-06T02:52:08.706Z,3.30
2022-11-06T02:54:39.086Z,3.53
2022-11-06T02:57:09.134Z,3.88
2022-11-06T02:59:47.316Z,3.65
2022-11-06T03:02:19.881Z,3.83
2022-11-06T03:05:04.976Z,5.15
2022-11-06T03:07:38.425Z,4.25
2022-11-06T03:10:06.974Z,3.97
2022-11-06T03:12:54.910Z,5.65
2022-11-06T03:16:10.947Z,3.30
2022-11-06T03:18:50.085Z,3.15
2022-11-06T03:26:53.988Z,3.53
2022-11-06T03:29:41.523Z,3.78
2022-11-06T03:32:17.292Z,5.00
2022-11-06T03:35:04.587Z,3.90
2022-11-06T03:37:37.964Z,4.60
2022-11-06T03:40:08.873Z,2.90
2022-11-06T03:42:36.283Z,4.00
2022-11-06T03:45:07.968Z,4.40
2022-11-06T03:47:41.083Z,3.58
2022-11-06T03:50:20.460Z,3.97
2022-11-06T03:52:54.193Z,4.20
2022-11-06T03:55:28.527Z,3.33
2022-11-06T03:58:14.657Z,3.78
2022-11-06T04:00:43.026Z,3.55
2022-11-06T04:03:23.255Z,4.63
2022-11-06T04:06:06.105Z,3.45
2022-11-06T04:08:52.031Z,3.40
2022-11-06T04:11:39.366Z,3.90
2022-11-06T04:14:07.225Z,4.25
2022-11-06T04:16:39.362Z,3.22
2022-11-06T04:19:20.347Z,3.47
2022-11-06T04:22:13.002Z,4.57
2022-11-06T04:25:17.055Z,3.65
2022-11-06T04:28:17.960Z,3.35
2022-11-06T04:31:05.041Z,4.45
2022-11-06T04:33:53.055Z,4.60
2022-11-06T04:36:42.941Z,3.95
2022-11-06T04:39:37.453Z,3.13
2022-11-06T04:42:22.338Z,4.25
2022-11-06T04:45:02.349Z,5.50
2022-11-06T04:47:29.764Z,3.97
2022-11-06T04:49:57.727Z,4.03
2022-11-06T04:52:26.902Z,4.00
2022-11-06T04:57:22.475Z,3.70
2022-11-06T04:59:49.292Z,2.67
2022-11-06T05:02:16.205Z,4.00
2022-11-06T05:04:43.155Z,3.95
2022-11-06T05:07:13.164Z,3.20
2022-11-06T05:09:40.285Z,3.15
2022-11-06T05:12:07.229Z,3.75
2022-11-06T05:14:34.052Z,4.22
2022-11-06T05:17:00.897Z,2.83
2022-11-06T05:19:27.774Z,3.75
2022-11-06T05:22:13.405Z,2.58
2022-11-06T05:24:40.229Z,3.83
2022-11-06T05:27:07.184Z,4.10
2022-11-06T05:29:33.992Z,3.72
2022-11-06T05:32:00.896Z,3.38
2022-11-06T05:34:27.731Z,2.97
2022-11-06T05:36:54.571Z,2.88
2022-11-06T05:39:21.356Z,3.13
2022-11-06T05:41:48.187Z,3.35
2022-11-06T05:44:15.043Z,3.70
2022-11-06T05:46:48.583Z,3.05
2022-11-06T05:49:17.200Z,2.83
2022-11-06T05:51:44.297Z,3.15
2022-11-06T05:54:11.132Z,2.67
2022-11-06T05:56:38.058Z,3.35
2022-11-06T05:59:04.915Z,3.35
2022-11-06T06:01:31.929Z,3.58
2022-11-06T06:03:58.789Z,4.30
2022-11-06T06:06:25.950Z,4.13
2022-11-06T06:08:52.736Z,3.22
2022-11-06T06:11:19.559Z,3.55
2022-11-06T06:13:46.413Z,3.88
2022-11-06T06:16:13.283Z,3.47
2022-11-06T06:18:40.100Z,3.00
2022-11-06T06:21:06.965Z,3.08
2022-11-06T06:23:33.754Z,2.95
2022-11-06T06:26:00.607Z,4.05
2022-11-06T06:28:27.507Z,4.53
2022-11-06T06:31:00.087Z,3.58
2022-11-06T06:33:28.410Z,2.50
2022-11-06T06:35:55.238Z,3.38
2022-11-06T06:38:22.137Z,3.58
2022-11-06T06:40:48.961Z,2.90
2022-11-06T06:43:15.836Z,2.53
2022-11-06T06:45:42.671Z,4.13
2022-11-06T06:48:09.521Z,4.00
2022-11-06T06:50:36.578Z,3.67
2022-11-06T06:53:03.823Z,3.28
2022-11-06T06:55:30.648Z,2.72
2022-11-06T06:57:59.126Z,2.58
2022-11-06T07:00:26.384Z,3.28
2022-11-06T07:02:53.430Z,3.88
2022-11-06T07:05:20.888Z,3.03
2022-11-06T07:07:47.714Z,3.28
2022-11-06T07:10:14.656Z,2.38
2022-11-06T07:12:41.481Z,3.22
2022-11-06T07:15:08.989Z,3.42
2022-11-06T07:17:35.926Z,2.28
2022-11-06T07:20:03.318Z,2.95
2022-11-06T07:22:36.732Z,3.42
2022-11-06T07:25:05.382Z,3.85
2022-11-06T07:27:32.394Z,2.78
2022-11-06T07:30:00.663Z,2.33
2022-11-06T07:32:28.042Z,3.97
2022-11-06T07:34:54.897Z,2.60
2022-11-06T07:37:22.013Z,3.53
2022-11-06T07:39:48.935Z,3.03
2022-11-06T07:42:15.764Z,2.20
2022-11-06T07:44:56.296Z,4.07
2022-11-06T07:47:23.318Z,3.90
2022-11-06T07:49:51.273Z,3.03
2022-11-06T07:52:18.290Z,3.22
2022-11-06T07:54:46.417Z,2.03
2022-11-06T07:57:13.327Z,2.75
2022-11-06T07:59:40.245Z,3.03
2022-11-06T08:02:09.404Z,4.75
2022-11-06T08:07:03.237Z,7.78
2022-11-06T08:09:30.138Z,6.03
2022-11-06T08:11:57.079Z,8.13
2022-11-06T08:14:24.023Z,5.90
2022-11-06T08:16:50.836Z,6.25
2022-11-06T08:19:17.618Z,4.70
2022-11-06T08:21:44.499Z,4.00
2022-11-06T08:24:11.334Z,5.82
2022-11-06T08:26:38.216Z,3.63
2022-11-06T08:29:05.049Z,4.70
2022-11-06T08:31:31.937Z,5.78
2022-11-06T08:33:58.752Z,4.03
2022-11-06T08:36:25.612Z,4.45
2022-11-06T08:38:52.447Z,5.43
2022-11-06T08:41:19.250Z,4.32
2022-11-06T08:43:46.101Z,6.03
2022-11-06T08:46:13.075Z,4.53
2022-11-06T08:48:40.033Z,3.15
2022-11-06T08:51:07.018Z,4.88
2022-11-06T08:53:34.214Z,3.17
2022-11-06T08:56:04.217Z,5.68
2022-11-06T08:58:31.219Z,4.05
2022-11-06T09:00:58.202Z,7.05
2022-11-06T09:03:25.074Z,7.55
2022-11-06T09:05:51.888Z,5.93
2022-11-06T09:08:18.755Z,6.00
2022-11-06T09:10:45.775Z,4.45
2022-11-06T09:13:13.284Z,5.88
2022-11-06T09:15:40.514Z,4.40
2022-11-06T09:18:07.358Z,5.15
2022-11-06T09:20:34.815Z,8.18
2022-11-06T09:23:06.484Z,3.67
2022-11-06T09:25:33.331Z,7.15
2022-11-06T09:28:00.537Z,7.05
2022-11-06T09:30:30.066Z,6.72
2022-11-06T09:32:58.838Z,9.30
2022-11-06T09:35:27.107Z,4.72
2022-11-06T09:37:54.186Z,7.15
2022-11-06T09:40:37.357Z,4.63
2022-11-06T09:43:58.067Z,3.95
2022-11-06T09:46:25.231Z,3.35
2022-11-06T09:49:26.583Z,4.45
2022-11-06T09:51:59.033Z,4.13
2022-11-06T09:54:33.580Z,5.90
2022-11-06T09:57:19.990Z,6.20
2022-11-06T09:59:47.588Z,5.28
2022-11-06T10:02:53.196Z,3.42
2022-11-06T10:05:32.611Z,5.53
2022-11-06T10:08:01.657Z,6.45
2022-11-06T10:10:40.266Z,3.72
2022-11-06T10:13:21.943Z,4.07
2022-11-06T10:16:06.099Z,3.78
2022-11-06T10:18:44.554Z,3.30
2022-11-06T10:21:25.430Z,4.00
2022-11-06T10:24:01.026Z,3.17
2022-11-06T10:26:41.824Z,2.58
2022-11-06T10:29:16.416Z,7.38
2022-11-06T10:32:04.552Z,2.80
2022-11-06T10:34:41.322Z,5.60
2022-11-06T10:37:33.091Z,7.40
2022-11-06T10:40:00.379Z,18.23
2022-11-06T10:42:36.676Z,21.80
2022-11-06T10:45:11.850Z,20.58
2022-11-06T10:47:50.957Z,15.02
2022-11-06T10:52:55.460Z,11.38
2022-11-06T10:55:50.047Z,10.77
2022-11-06T10:58:22.477Z,14.13
2022-11-06T11:00:50.548Z,16.38
2022-11-06T11:03:39.550Z,15.90
2022-11-06T11:06:07.480Z,6.50
2022-11-06T11:08:35.633Z,10.13
2022-11-06T11:11:15.891Z,7.70
2022-11-06T11:13:43.658Z,10.23
2022-11-06T11:16:26.287Z,9.68
2022-11-06T11:18:53.620Z,15.55
2022-11-06T11:21:24.808Z,11.35
2022-11-06T11:24:11.393Z,12.70
2022-11-06T11:26:47.428Z,16.92
2022-11-06T11:29:16.996Z,12.02
2022-11-06T11:31:50.394Z,10.88
2022-11-06T11:34:21.188Z,9.40
2022-11-06T11:37:00.219Z,10.38
2022-11-06T11:42:23.580Z,17.33
2022-11-06T11:45:26.150Z,23.05
2022-11-06T11:47:53.088Z,16.20
2022-11-06T11:50:27.395Z,27.45
2022-11-06T11:53:10.269Z,13.65
2022-11-06T11:55:49.531Z,23.08
2022-11-06T11:58:36.630Z,17.25
2022-11-06T12:01:05.027Z,16.23
2022-11-06T12:03:41.520Z,10.05
2022-11-06T12:06:10.448Z,13.40
2022-11-06T12:08:39.788Z,15.82
2022-11-06T12:11:07.576Z,14.45
2022-11-06T12:13:34.473Z,16.60
2022-11-06T12:16:02.751Z,13.60
2022-11-06T12:18:39.289Z,9.30
2022-11-06T12:21:17.864Z,12.35
2022-11-06T12:23:58.000Z,16.52
2022-11-06T12:26:24.747Z,23.30
2022-11-06T12:29:13.384Z,17.98
2022-11-06T12:31:47.409Z,23.67
2022-11-06T12:34:31.475Z,26.52
2022-11-06T12:37:20.218Z,21.77
2022-11-06T12:39:56.955Z,28.85
2022-11-06T12:42:27.754Z,27.23
2022-11-06T12:44:54.591Z,31.02
2022-11-06T12:47:40.566Z,26.17
2022-11-06T12:50:29.167Z,32.17
2022-11-06T12:52:55.917Z,29.33
2022-11-06T12:55:33.605Z,25.02
2022-11-06T12:58:28.452Z,35.28
2022-11-06T13:01:03.378Z,25.10
2022-11-06T13:04:11.533Z,23.42
2022-11-06T13:06:41.459Z,24.77
2022-11-06T13:09:31.116Z,27.63
2022-11-06T13:12:16.014Z,22.15
2022-11-06T13:15:23.049Z,22.60
2022-11-06T13:18:07.166Z,26.38
2022-11-06T13:20:45.978Z,23.88
2022-11-06T13:23:15.801Z,21.33
2022-11-06T13:25:53.343Z,22.17
2022-11-06T13:28:28.454Z,18.90
2022-11-06T13:30:57.199Z,23.55
2022-11-06T13:33:41.668Z,22.00
2022-11-06T13:36:08.918Z,16.05
2022-11-06T13:38:38.693Z,15.82
2022-11-06T13:41:14.972Z,19.13
2022-11-06T13:43:45.237Z,16.48
2022-11-06T13:46:36.847Z,14.35
2022-11-06T13:49:28.304Z,14.15
2022-11-06T13:52:03.537Z,18.75
2022-11-06T13:54:36.262Z,12.20
2022-11-06T13:57:24.600Z,14.07
2022-11-06T14:00:25.484Z,17.45
2022-11-06T14:03:31.391Z,12.27
2022-11-06T14:06:04.603Z,14.43
2022-11-06T14:08:46.954Z,11.85
2022-11-06T14:11:16.933Z,15.88
2022-11-06T14:13:59.923Z,14.93
2022-11-06T14:16:29.787Z,9.82
2022-11-06T14:19:02.161Z,11.35
2022-11-06T14:21:44.612Z,9.25
2022-11-06T14:24:19.433Z,17.65
2022-11-06T14:26:47.981Z,16.52
2022-11-06T14:29:29.631Z,19.15
2022-11-06T14:32:24.461Z,23.92
2022-11-06T14:34:51.483Z,18.60
2022-11-06T14:37:18.294Z,17.48
2022-11-06T14:39:57.048Z,14.23
2022-11-06T14:42:27.026Z,18.23
2022-11-06T14:44:56.585Z,14.45
2022-11-06T14:47:41.843Z,19.33
2022-11-06T14:50:40.351Z,11.93
2022-11-06T14:53:22.983Z,19.98
2022-11-06T14:56:02.289Z,15.40
2022-11-06T14:58:37.944Z,9.45
2022-11-06T15:01:10.525Z,15.05
2022-11-06T15:04:03.108Z,8.55
2022-11-06T15:06:32.979Z,9.93
2022-11-06T15:09:05.804Z,15.00
2022-11-06T15:11:32.560Z,15.80
2022-11-06T15:14:02.214Z,14.02
2022-11-06T15:16:37.260Z,14.00
2022-11-06T15:19:06.608Z,11.07
2022-11-06T15:21:41.132Z,10.77
2022-11-06T15:24:14.101Z,15.95
2022-11-06T15:26:45.950Z,11.70
2022-11-06T15:29:15.806Z,14.82
2022-11-06T15:31:48.075Z,12.55
2022-11-06T15:34:29.260Z,14.73
2022-11-06T15:37:21.845Z,15.05
2022-11-06T15:39:49.207Z,12.15
2022-11-06T15:42:18.516Z,11.65
2022-11-06T15:44:47.507Z,11.57
2022-11-06T15:47:25.679Z,14.52
2022-11-06T15:50:15.547Z,15.15
2022-11-06T15:52:42.992Z,18.92
2022-11-06T15:55:31.399Z,14.27
2022-11-06T15:58:30.437Z,14.50
2022-11-06T16:00:59.518Z,12.35
2022-11-06T16:03:30.326Z,14.50
2022-11-06T16:06:00.791Z,12.18
2022-11-06T16:08:29.711Z,10.48
2022-11-06T16:10:57.520Z,15.57
2022-11-06T16:13:25.598Z,14.48
2022-11-06T16:15:56.946Z,8.63
2022-11-06T16:18:27.703Z,13.25
2022-11-06T16:20:54.576Z,14.80
2022-11-06T16:23:37.601Z,11.35
2022-11-06T16:26:15.460Z,11.30
2022-11-06T16:28:44.016Z,14.07
2022-11-06T16:31:17.896Z,12.82
2022-11-06T16:34:03.204Z,13.35
2022-11-06T16:36:48.142Z,9.30
2022-11-06T16:39:17.947Z,12.15
2022-11-06T16:42:23.766Z,12.13
2022-11-06T16:45:18.009Z,8.98
2022-11-06T16:48:07.418Z,6.22
2022-11-06T16:50:47.469Z,9.05
2022-11-06T16:53:48.014Z,9.10
2022-11-06T16:56:15.242Z,14.90
2022-11-06T16:58:59.786Z,9.88
2022-11-06T17:01:27.037Z,6.97
2022-11-06T17:04:00.117Z,8.18
2022-11-06T17:06:35.029Z,7.18
2022-11-06T17:09:09.817Z,7.00
2022-11-06T17:11:37.197Z,9.02
2022-11-06T17:14:20.755Z,6.45
2022-11-06T17:16:52.321Z,9.35
2022-11-06T17:19:20.191Z,5.75
2022-11-06T17:21:48.328Z,11.13
2022-11-06T17:27:01.938Z,10.00
2022-11-06T17:29:28.906Z,6.10
2022-11-06T17:31:56.647Z,10.15
2022-11-06T17:34:23.559Z,16.92
2022-11-06T17:36:50.422Z,8.52
2022-11-06T17:39:17.293Z,11.57
2022-11-06T17:41:44.143Z,10.48
2022-11-06T17:44:13.092Z,12.02
2022-11-06T17:46:42.121Z,6.43
2022-11-06T17:49:14.223Z,8.30
2022-11-06T17:51:52.734Z,13.98
2022-11-06T17:54:25.381Z,9.10
2022-11-06T17:56:53.752Z,12.30
2022-11-06T17:59:20.958Z,8.45
2022-11-06T18:01:50.464Z,8.98
2022-11-06T18:04:18.769Z,6.15
2022-11-06T18:06:49.304Z,8.88
2022-11-06T18:09:16.455Z,15.95
2022-11-06T18:11:43.393Z,8.02
2022-11-06T18:14:11.147Z,15.27
2022-11-06T18:16:43.581Z,9.90
2022-11-06T18:19:12.553Z,17.58
2022-11-06T18:21:39.358Z,11.45
2022-11-06T18:24:06.683Z,11.07
2022-11-06T18:26:33.532Z,7.47
2022-11-06T18:29:00.386Z,14.05
2022-11-06T18:31:27.791Z,24.00
2022-11-06T18:33:54.740Z,22.58
2022-11-06T18:36:21.614Z,17.05
2022-11-06T18:38:48.429Z,14.70
2022-11-06T18:41:20.817Z,16.90
2022-11-06T18:43:47.848Z,16.55
2022-11-06T18:46:16.964Z,14.07
2022-11-06T18:51:33.456Z,22.25
2022-11-06T18:54:04.545Z,15.68
2022-11-06T18:56:33.104Z,9.70
2022-11-06T18:59:00.407Z,14.52
2022-11-06T19:01:28.573Z,14.05
2022-11-06T19:03:55.910Z,8.63
2022-11-06T19:06:22.756Z,14.68
2022-11-06T19:08:49.645Z,13.82
2022-11-06T19:11:18.256Z,15.10
2022-11-06T19:13:48.381Z,13.55
2022-11-06T19:16:19.222Z,19.65
2022-11-06T19:18:46.705Z,14.55
2022-11-06T19:21:14.066Z,11.88
2022-11-06T19:23:43.070Z,12.05
2022-11-06T19:29:00.174Z,13.63
2022-11-06T19:31:29.438Z,10.68
2022-11-06T19:36:25.227Z,6.75
2022-11-06T19:38:52.712Z,14.87
2022-11-06T19:41:20.345Z,11.57
2022-11-06T19:43:47.194Z,11.50
2022-11-06T19:46:17.108Z,10.02
2022-11-06T19:48:46.521Z,15.25
2022-11-06T19:51:15.866Z,9.65
2022-11-06T19:53:43.669Z,7.97
2022-11-06T19:56:12.713Z,11.23
2022-11-06T19:58:39.697Z,9.43
2022-11-06T20:01:07.994Z,12.23
2022-11-06T20:03:36.153Z,11.90
2022-11-06T20:06:07.815Z,11.20
2022-11-06T20:08:36.945Z,12.32
2022-11-06T20:11:05.265Z,8.55
2022-11-06T20:13:39.071Z,8.67
2022-11-06T20:16:08.633Z,10.05
2022-11-06T20:18:35.991Z,10.57
2022-11-06T20:21:04.838Z,6.82
2022-11-06T20:23:32.171Z,9.32
2022-11-06T20:25:59.341Z,12.45
2022-11-06T20:28:26.982Z,6.95
2022-11-06T20:30:53.894Z,9.52
2022-11-06T20:33:20.732Z,9.18
2022-11-06T20:35:47.652Z,8.82
2022-11-06T20:38:14.757Z,10.07
2022-11-06T20:40:42.675Z,12.88
2022-11-06T20:43:09.658Z,10.68
2022-11-06T20:45:37.554Z,8.45
2022-11-06T20:48:06.251Z,6.47
2022-11-06T20:50:33.806Z,7.88
2022-11-06T20:53:00.901Z,11.05
2022-11-06T20:55:27.765Z,6.95
2022-11-06T20:57:54.600Z,6.53
2022-11-06T21:00:21.578Z,7.90
2022-11-06T21:02:48.598Z,7.38
2022-11-06T21:05:15.736Z,6.80
2022-11-06T21:07:42.576Z,8.10
2022-11-06T21:10:10.994Z,7.38
2022-11-06T21:12:38.175Z,5.63
2022-11-06T21:15:05.605Z,8.23
2022-11-06T21:17:32.484Z,8.18
2022-11-06T21:19:59.281Z,4.40
2022-11-06T21:22:26.143Z,7.95
2022-11-06T21:24:52.995Z,5.60
2022-11-06T21:27:20.122Z,7.22
2022-11-06T21:29:46.973Z,5.22
2022-11-06T21:32:13.849Z,6.63
2022-11-06T21:34:40.649Z,4.70
2022-11-06T21:37:07.476Z,6.53
2022-11-06T21:39:36.405Z,6.10
2022-11-06T21:44:30.838Z,6.72
2022-11-06T21:46:57.774Z,5.53
2022-11-06T21:49:24.590Z,5.30
2022-11-06T21:51:51.385Z,5.22
2022-11-06T21:54:37.057Z,4.72
2022-11-06T21:57:04.002Z,6.65
2022-11-06T21:59:30.933Z,7.63
2022-11-06T22:01:58.005Z,5.65
2022-11-06T22:04:25.033Z,4.93
2022-11-06T22:06:52.541Z,4.85
2022-11-06T22:09:24.832Z,4.75
2022-11-06T22:11:52.548Z,4.38
2022-11-06T22:14:19.403Z,5.95
2022-11-06T22:16:47.259Z,5.30
2022-11-06T22:19:15.457Z,4.97
2022-11-06T22:21:42.871Z,5.55
2022-11-06T22:24:12.057Z,6.40
2022-11-06T22:29:08.530Z,5.03
2022-11-06T22:31:35.578Z,4.85
2022-11-06T22:34:02.849Z,4.20
2022-11-06T22:36:29.807Z,6.25
2022-11-06T22:38:57.695Z,4.72
2022-11-06T22:41:25.363Z,4.13
2022-11-06T22:43:53.006Z,5.18
2022-11-06T22:46:22.314Z,5.20
2022-11-06T22:51:23.074Z,4.80
2022-11-06T22:53:52.979Z,6.20
2022-11-06T22:56:21.177Z,3.83
2022-11-06T22:58:48.097Z,4.40
2022-11-06T23:01:15.006Z,3.83
2022-11-06T23:03:41.865Z,4.43
2022-11-06T23:06:10.005Z,4.85
2022-11-06T23:08:40.664Z,4.00
2022-11-06T23:11:12.590Z,7.72
2022-11-06T23:13:39.732Z,4.75
2022-11-06T23:16:09.897Z,4.95
2022-11-06T23:18:37.193Z,5.18
2022-11-06T23:21:15.468Z,4.03
2022-11-06T23:23:43.445Z,5.80
2022-11-06T23:26:15.041Z,4.45
2022-11-06T23:28:42.097Z,5.35
2022-11-06T23:31:10.127Z,4.32
2022-11-06T23:33:37.480Z,5.47
2022-11-06T23:36:13.133Z,4.07
2022-11-06T23:38:40.519Z,4.70
2022-11-06T23:41:28.180Z,3.85
2022-11-06T23:43:55.822Z,4.68
2022-11-06T23:46:25.095Z,3.30
2022-11-06T23:48:52.058Z,3.50
2022-11-06T23:51:19.462Z,5.18
2022-11-06T23:53:46.398Z,3.10
2022-11-06T23:56:13.697Z,6.82
2022-11-06T23:58:41.691Z,5.40
